createdAt,value
2022-10-08T00:01:15.991Z,3.60
2022-10-08T00:03:48.395Z,3.55
2022-10-08T00:06:17.736Z,3.45
2022-10-08T00:08:49.390Z,3.30
2022-10-08T00:11:21.822Z,3.55
2022-10-08T00:13:50.460Z,3.60
2022-10-08T00:16:24.376Z,3.67
2022-10-08T00:18:54.164Z,3.95
2022-10-08T00:21:25.677Z,3.70
2022-10-08T00:23:53.218Z,3.75
2022-10-08T00:26:24.341Z,3.38
2022-10-08T00:28:56.949Z,3.40
2022-10-08T00:31:36.246Z,3.38
2022-10-08T00:34:06.032Z,3.00
2022-10-08T00:36:34.700Z,3.63
2022-10-08T00:39:07.774Z,3.00
2022-10-08T00:41:37.296Z,2.60
2022-10-08T00:44:42.026Z,3.20
2022-10-08T00:47:19.391Z,3.20
2022-10-08T00:49:49.370Z,3.10
2022-10-08T00:52:18.292Z,2.80
2022-10-08T00:54:46.008Z,3.50
2022-10-08T00:57:13.250Z,3.17
2022-10-08T00:59:40.514Z,2.83
2022-10-08T01:02:09.064Z,3.10
2022-10-08T01:04:37.868Z,3.28
2022-10-08T01:07:19.057Z,3.25
2022-10-08T01:10:08.717Z,3.30
2022-10-08T01:15:36.764Z,2.92
2022-10-08T01:18:13.724Z,2.97
2022-10-08T01:20:45.487Z,3.05
2022-10-08T01:23:12.710Z,2.67
2022-10-08T01:25:58.467Z,3.33
2022-10-08T01:28:36.785Z,2.67
2022-10-08T01:31:10.972Z,2.17
2022-10-08T01:33:45.614Z,2.50
2022-10-08T01:36:14.731Z,2.63
2022-10-08T01:38:46.917Z,2.25
2022-10-08T01:41:15.169Z,2.42
2022-10-08T01:43:46.343Z,2.88
2022-10-08T01:46:20.434Z,2.58
2022-10-08T01:48:49.769Z,2.67
2022-10-08T01:51:27.771Z,2.27
2022-10-08T01:53:55.999Z,2.45
2022-10-08T01:56:27.477Z,2.17
2022-10-08T01:58:59.175Z,2.33
2022-10-08T02:01:37.240Z,2.38
2022-10-08T02:04:23.400Z,2.13
2022-10-08T02:06:57.898Z,2.30
2022-10-08T02:09:29.213Z,2.10
2022-10-08T02:11:57.561Z,2.30
2022-10-08T02:14:26.597Z,1.98
2022-10-08T02:17:03.672Z,1.85
2022-10-08T02:19:53.035Z,2.00
2022-10-08T02:22:25.742Z,2.03
2022-10-08T02:25:01.012Z,2.00
2022-10-08T02:27:38.049Z,2.10
2022-10-08T02:30:10.078Z,1.77
2022-10-08T02:32:49.300Z,1.88
2022-10-08T02:35:30.127Z,2.23
2022-10-08T02:38:05.401Z,1.92
2022-10-08T02:40:33.551Z,2.38
2022-10-08T02:43:07.257Z,1.60
2022-10-08T02:45:44.028Z,1.85
2022-10-08T02:48:16.438Z,2.42
2022-10-08T02:50:44.606Z,2.00
2022-10-08T02:53:16.035Z,2.65
2022-10-08T02:56:08.249Z,1.85
2022-10-08T02:58:35.800Z,2.55
2022-10-08T03:01:28.688Z,2.53
2022-10-08T03:04:00.645Z,2.30
2022-10-08T03:06:28.374Z,2.08
2022-10-08T03:08:58.169Z,1.90
2022-10-08T03:11:26.185Z,2.58
2022-10-08T03:13:58.545Z,1.70
2022-10-08T03:16:42.645Z,2.38
2022-10-08T03:19:12.227Z,2.47
2022-10-08T03:21:40.930Z,2.10
2022-10-08T03:24:13.005Z,2.40
2022-10-08T03:26:40.652Z,2.08
2022-10-08T03:29:09.149Z,2.10
2022-10-08T03:31:36.843Z,2.05
2022-10-08T03:34:04.319Z,2.55
2022-10-08T03:36:31.876Z,2.15
2022-10-08T03:38:59.155Z,2.38
2022-10-08T03:41:26.554Z,1.90
2022-10-08T03:43:53.841Z,2.00
2022-10-08T03:46:21.188Z,2.03
2022-10-08T03:48:49.893Z,2.15
2022-10-08T03:51:18.602Z,2.33
2022-10-08T03:53:46.076Z,2.13
2022-10-08T03:56:16.556Z,2.10
2022-10-08T03:58:44.181Z,1.98
2022-10-08T04:01:14.747Z,1.80
2022-10-08T04:03:42.488Z,2.53
2022-10-08T04:06:09.923Z,2.50
2022-10-08T04:08:37.644Z,2.67
2022-10-08T04:11:06.749Z,2.30
2022-10-08T04:13:34.979Z,2.00
2022-10-08T04:16:07.034Z,1.73
2022-10-08T04:18:35.042Z,2.22
2022-10-08T04:21:04.741Z,2.53
2022-10-08T04:23:34.492Z,2.30
2022-10-08T04:26:01.807Z,2.22
2022-10-08T04:28:29.685Z,2.25
2022-10-08T04:31:02.199Z,2.53
2022-10-08T04:33:34.957Z,2.30
2022-10-08T04:36:06.964Z,2.20
2022-10-08T04:38:34.287Z,2.67
2022-10-08T04:41:03.933Z,2.40
2022-10-08T04:43:31.356Z,2.00
2022-10-08T04:45:58.650Z,2.50
2022-10-08T04:48:25.965Z,2.63
2022-10-08T04:50:57.572Z,2.40
2022-10-08T04:53:28.145Z,2.42
2022-10-08T04:55:56.399Z,2.47
2022-10-08T04:58:25.694Z,3.05
2022-10-08T05:00:52.903Z,2.77
2022-10-08T05:03:20.210Z,2.20
2022-10-08T05:05:47.436Z,2.58
2022-10-08T05:08:14.713Z,2.33
2022-10-08T05:10:48.096Z,2.17
2022-10-08T05:13:15.363Z,2.30
2022-10-08T05:15:42.613Z,2.50
2022-10-08T05:18:09.948Z,2.20
2022-10-08T05:20:37.331Z,2.40
2022-10-08T05:23:04.605Z,2.47
2022-10-08T05:25:32.656Z,3.08
2022-10-08T05:28:00.262Z,2.88
2022-10-08T05:30:27.697Z,2.30
2022-10-08T05:32:55.352Z,2.95
2022-10-08T05:35:22.603Z,2.33
2022-10-08T05:37:49.812Z,2.60
2022-10-08T05:40:17.215Z,2.92
2022-10-08T05:42:44.546Z,2.42
2022-10-08T05:45:12.207Z,2.53
2022-10-08T05:47:39.675Z,2.92
2022-10-08T05:50:07.559Z,2.72
2022-10-08T05:52:34.835Z,2.80
2022-10-08T05:55:02.058Z,2.95
2022-10-08T05:57:29.320Z,2.55
2022-10-08T05:59:56.611Z,2.67
2022-10-08T06:02:23.943Z,3.35
2022-10-08T06:04:51.332Z,3.28
2022-10-08T06:07:18.631Z,2.85
2022-10-08T06:09:46.146Z,2.55
2022-10-08T06:12:14.142Z,4.40
2022-10-08T06:14:41.409Z,11.18
2022-10-08T06:17:08.896Z,4.28
2022-10-08T06:19:37.253Z,3.35
2022-10-08T06:22:05.009Z,2.55
2022-10-08T06:24:32.353Z,2.72
2022-10-08T06:26:59.662Z,3.05
2022-10-08T06:29:26.984Z,2.67
2022-10-08T06:31:54.274Z,2.80
2022-10-08T06:34:21.697Z,2.75
2022-10-08T06:36:49.038Z,2.80
2022-10-08T06:39:17.911Z,3.00
2022-10-08T06:41:45.664Z,2.53
2022-10-08T06:44:14.527Z,4.20
2022-10-08T06:46:42.651Z,3.05
2022-10-08T06:49:11.150Z,2.90
2022-10-08T06:51:38.463Z,4.20
2022-10-08T06:54:08.317Z,3.03
2022-10-08T06:59:05.342Z,5.55
2022-10-08T07:01:34.417Z,5.68
2022-10-08T07:04:02.579Z,3.20
2022-10-08T07:06:29.939Z,3.33
2022-10-08T07:08:59.244Z,3.80
2022-10-08T07:11:27.032Z,3.70
2022-10-08T07:13:55.123Z,3.53
2022-10-08T07:16:24.475Z,3.35
2022-10-08T07:18:53.428Z,2.90
2022-10-08T07:21:21.989Z,3.33
2022-10-08T07:23:49.569Z,3.25
2022-10-08T07:26:19.095Z,2.80
2022-10-08T07:28:58.095Z,3.17
2022-10-08T07:31:31.276Z,3.25
2022-10-08T07:34:00.039Z,3.08
2022-10-08T07:36:28.509Z,4.43
2022-10-08T07:39:13.689Z,3.78
2022-10-08T07:41:41.555Z,3.72
2022-10-08T07:44:11.130Z,3.70
2022-10-08T07:46:42.663Z,3.10
2022-10-08T07:49:09.854Z,6.72
2022-10-08T07:51:37.259Z,4.28
2022-10-08T07:54:08.485Z,18.17
2022-10-08T07:56:36.384Z,5.22
2022-10-08T07:59:04.765Z,4.13
2022-10-08T08:01:33.319Z,4.18
2022-10-08T08:04:03.233Z,5.50
2022-10-08T08:06:31.790Z,4.45
2022-10-08T08:09:02.256Z,4.53
2022-10-08T08:11:29.935Z,3.88
2022-10-08T08:13:57.330Z,3.33
2022-10-08T08:16:26.649Z,3.17
2022-10-08T08:18:56.103Z,3.57
2022-10-08T08:21:37.188Z,3.30
2022-10-08T08:24:06.639Z,3.17
2022-10-08T08:26:36.711Z,2.90
2022-10-08T08:31:39.033Z,3.88
2022-10-08T08:34:08.827Z,3.55
2022-10-08T08:36:39.369Z,3.47
2022-10-08T08:39:08.890Z,3.28
2022-10-08T08:42:07.293Z,4.07
2022-10-08T08:44:38.202Z,4.00
2022-10-08T08:47:20.490Z,3.42
2022-10-08T08:49:52.653Z,3.00
2022-10-08T08:52:23.732Z,3.40
2022-10-08T08:54:53.296Z,3.03
2022-10-08T08:57:38.725Z,3.70
2022-10-08T09:00:11.461Z,4.13
2022-10-08T09:02:56.131Z,2.60
2022-10-08T09:05:25.226Z,3.25
2022-10-08T09:07:59.770Z,3.95
2022-10-08T09:10:36.977Z,3.08
2022-10-08T09:13:04.327Z,3.35
2022-10-08T09:15:36.489Z,3.33
2022-10-08T09:18:04.852Z,3.97
2022-10-08T09:20:35.635Z,3.50
2022-10-08T09:23:29.439Z,3.13
2022-10-08T09:26:00.636Z,3.88
2022-10-08T09:28:54.729Z,4.22
2022-10-08T09:31:29.700Z,4.40
2022-10-08T09:34:17.362Z,3.20
2022-10-08T09:37:05.072Z,2.65
2022-10-08T09:39:37.361Z,3.67
2022-10-08T09:42:07.518Z,3.05
2022-10-08T09:47:12.366Z,2.75
2022-10-08T09:49:40.191Z,2.70
2022-10-08T09:52:26.954Z,2.25
2022-10-08T09:55:02.493Z,2.30
2022-10-08T09:57:30.766Z,2.55
2022-10-08T10:00:00.776Z,3.15
2022-10-08T10:02:31.317Z,2.88
2022-10-08T10:04:59.684Z,3.05
2022-10-08T10:07:47.620Z,2.92
2022-10-08T10:10:20.207Z,2.00
2022-10-08T10:12:53.332Z,2.47
2022-10-08T10:15:46.558Z,2.60
2022-10-08T10:18:17.499Z,2.58
2022-10-08T10:20:48.497Z,2.65
2022-10-08T10:23:20.021Z,2.80
2022-10-08T10:25:57.493Z,2.65
2022-10-08T10:28:40.608Z,2.35
2022-10-08T10:31:16.869Z,2.80
2022-10-08T10:33:54.610Z,2.53
2022-10-08T10:36:23.176Z,2.58
2022-10-08T10:39:06.473Z,2.08
2022-10-08T10:41:43.200Z,2.28
2022-10-08T10:44:11.648Z,2.42
2022-10-08T10:46:44.971Z,2.28
2022-10-08T10:49:21.267Z,2.83
2022-10-08T10:52:33.582Z,3.35
2022-10-08T10:55:23.553Z,1.98
2022-10-08T10:58:19.968Z,2.47
2022-10-08T11:00:55.614Z,2.50
2022-10-08T11:03:42.986Z,2.45
2022-10-08T11:06:39.242Z,2.25
2022-10-08T11:09:09.187Z,2.45
2022-10-08T11:11:41.463Z,3.28
2022-10-08T11:14:21.024Z,3.10
2022-10-08T11:16:51.154Z,2.15
2022-10-08T11:22:10.667Z,2.75
2022-10-08T11:24:53.143Z,1.98
2022-10-08T11:27:22.594Z,2.22
2022-10-08T11:30:04.655Z,2.20
2022-10-08T11:32:33.943Z,1.95
2022-10-08T11:35:11.863Z,2.43
2022-10-08T11:37:55.101Z,2.17
2022-10-08T11:40:35.447Z,1.67
2022-10-08T11:43:11.257Z,1.90
2022-10-08T11:45:44.233Z,2.13
2022-10-08T11:48:25.408Z,1.48
2022-10-08T11:50:52.758Z,2.33
2022-10-08T11:53:21.452Z,2.15
2022-10-08T11:55:59.156Z,1.85
2022-10-08T11:58:30.363Z,1.27
2022-10-08T12:01:09.079Z,1.75
2022-10-08T12:03:39.291Z,1.73
2022-10-08T12:06:26.081Z,1.88
2022-10-08T12:09:05.562Z,1.65
2022-10-08T12:11:32.717Z,1.60
2022-10-08T12:14:12.351Z,1.70
2022-10-08T12:16:48.860Z,1.33
2022-10-08T12:19:34.902Z,1.70
2022-10-08T12:22:14.794Z,1.90
2022-10-08T12:24:50.058Z,1.10
2022-10-08T12:27:18.001Z,1.70
2022-10-08T12:30:08.008Z,1.55
2022-10-08T12:32:44.771Z,1.25
2022-10-08T12:35:28.811Z,1.42
2022-10-08T12:38:19.945Z,1.60
2022-10-08T12:41:02.711Z,1.50
2022-10-08T12:43:45.194Z,3.05
2022-10-08T12:46:34.257Z,1.40
2022-10-08T12:49:23.808Z,1.30
2022-10-08T12:52:03.521Z,1.30
2022-10-08T12:54:31.478Z,1.45
2022-10-08T12:56:59.868Z,1.40
2022-10-08T12:59:32.196Z,1.63
2022-10-08T13:01:59.552Z,1.40
2022-10-08T13:04:30.041Z,1.17
2022-10-08T13:07:00.662Z,1.63
2022-10-08T13:09:33.629Z,1.67
2022-10-08T13:12:05.785Z,1.85
2022-10-08T13:14:36.359Z,1.58
2022-10-08T13:17:04.331Z,1.70
2022-10-08T13:19:37.695Z,1.55
2022-10-08T13:22:23.817Z,1.70
2022-10-08T13:24:51.229Z,2.20
2022-10-08T13:27:45.252Z,2.10
2022-10-08T13:30:28.228Z,2.08
2022-10-08T13:33:05.683Z,1.90
2022-10-08T13:35:35.766Z,1.75
2022-10-08T13:38:07.334Z,2.65
2022-10-08T13:40:34.965Z,3.17
2022-10-08T13:43:02.181Z,2.22
2022-10-08T13:45:36.641Z,2.40
2022-10-08T13:48:04.568Z,2.00
2022-10-08T13:50:32.297Z,1.35
2022-10-08T13:53:00.615Z,1.70
2022-10-08T13:55:36.153Z,1.63
2022-10-08T13:58:05.693Z,1.70
2022-10-08T14:00:35.725Z,1.92
2022-10-08T14:03:03.432Z,1.33
2022-10-08T14:05:34.080Z,1.52
2022-10-08T14:08:05.828Z,1.65
2022-10-08T14:10:33.586Z,1.63
2022-10-08T14:13:00.957Z,1.35
2022-10-08T14:15:35.131Z,1.40
2022-10-08T14:18:08.038Z,1.77
2022-10-08T14:20:36.567Z,1.77
2022-10-08T14:23:03.873Z,1.90
2022-10-08T14:25:31.953Z,1.77
2022-10-08T14:27:59.803Z,1.70
2022-10-08T14:30:28.103Z,1.50
2022-10-08T14:32:55.657Z,1.58
2022-10-08T14:35:23.233Z,1.35
2022-10-08T14:37:50.699Z,1.40
2022-10-08T14:40:21.503Z,1.60
2022-10-08T14:42:49.919Z,1.65
2022-10-08T14:45:17.759Z,1.63
2022-10-08T14:47:45.225Z,2.40
2022-10-08T14:50:13.536Z,2.03
2022-10-08T14:52:44.347Z,2.13
2022-10-08T14:55:13.395Z,2.63
2022-10-08T14:57:40.728Z,4.97
2022-10-08T15:03:16.521Z,1.48
2022-10-08T15:05:43.867Z,1.23
2022-10-08T15:08:11.228Z,1.65
2022-10-08T15:10:38.452Z,1.50
2022-10-08T15:13:05.717Z,1.83
2022-10-08T15:15:32.958Z,1.80
2022-10-08T15:18:00.175Z,1.80
2022-10-08T15:20:27.448Z,2.03
2022-10-08T15:22:54.679Z,1.95
2022-10-08T15:25:22.014Z,1.70
2022-10-08T15:27:49.266Z,1.70
2022-10-08T15:30:16.901Z,1.17
2022-10-08T15:32:44.142Z,1.20
2022-10-08T15:35:12.226Z,1.40
2022-10-08T15:37:39.821Z,1.23
2022-10-08T15:40:07.490Z,1.58
2022-10-08T15:42:34.873Z,1.35
2022-10-08T15:45:02.197Z,1.20
2022-10-08T15:47:29.642Z,1.15
2022-10-08T15:49:56.938Z,1.38
2022-10-08T15:52:24.269Z,1.48
2022-10-08T15:54:51.506Z,3.05
2022-10-08T15:57:19.195Z,1.95
2022-10-08T15:59:46.649Z,1.55
2022-10-08T16:02:17.586Z,1.80
2022-10-08T16:04:46.953Z,1.42
2022-10-08T16:07:14.351Z,1.73
2022-10-08T16:09:41.693Z,1.58
2022-10-08T16:12:09.004Z,1.52
2022-10-08T16:14:36.394Z,3.35
2022-10-08T16:17:03.855Z,1.95
2022-10-08T16:19:31.309Z,1.35
2022-10-08T16:21:58.787Z,1.50
2022-10-08T16:24:26.129Z,1.40
2022-10-08T16:26:53.392Z,1.67
2022-10-08T16:29:20.816Z,1.40
2022-10-08T16:31:48.502Z,1.75
2022-10-08T16:34:20.522Z,1.50
2022-10-08T16:36:48.396Z,1.48
2022-10-08T16:39:18.145Z,2.08
2022-10-08T16:41:45.638Z,1.63
2022-10-08T16:44:15.354Z,1.67
2022-10-08T16:46:45.288Z,1.77
2022-10-08T16:49:22.779Z,2.00
2022-10-08T16:51:56.325Z,2.17
2022-10-08T16:54:23.979Z,1.90
2022-10-08T16:56:51.331Z,1.90
2022-10-08T16:59:21.102Z,1.88
2022-10-08T17:01:50.818Z,1.60
2022-10-08T17:04:18.430Z,2.35
2022-10-08T17:06:45.740Z,2.08
2022-10-08T17:09:13.238Z,2.13
2022-10-08T17:11:41.800Z,1.50
2022-10-08T17:14:10.375Z,1.80
2022-10-08T17:16:38.391Z,2.35
2022-10-08T17:19:06.167Z,1.67
2022-10-08T17:21:35.025Z,1.52
2022-10-08T17:24:03.168Z,2.20
2022-10-08T17:26:31.141Z,2.30
2022-10-08T17:29:03.193Z,2.13
2022-10-08T17:31:31.758Z,2.63
2022-10-08T17:33:59.788Z,2.42
2022-10-08T17:36:29.416Z,2.28
2022-10-08T17:38:58.621Z,2.95
2022-10-08T17:41:33.759Z,3.22
2022-10-08T17:44:02.923Z,2.50
2022-10-08T17:46:35.008Z,3.17
2022-10-08T17:49:02.505Z,2.40
2022-10-08T17:51:30.559Z,2.50
2022-10-08T17:54:00.480Z,2.60
2022-10-08T17:56:28.322Z,4.78
2022-10-08T17:58:55.922Z,4.07
2022-10-08T18:01:28.610Z,4.28
2022-10-08T18:03:58.366Z,3.13
2022-10-08T18:06:26.868Z,2.95
2022-10-08T18:08:58.999Z,2.90
2022-10-08T18:11:28.057Z,2.55
2022-10-08T18:13:55.633Z,3.00
2022-10-08T18:16:23.119Z,2.65
2022-10-08T18:18:50.355Z,3.17
2022-10-08T18:21:18.641Z,2.90
2022-10-08T18:23:48.722Z,3.10
2022-10-08T18:26:27.380Z,2.80
2022-10-08T18:28:59.494Z,3.13
2022-10-08T18:31:31.053Z,3.65
2022-10-08T18:34:00.818Z,3.35
2022-10-08T18:36:30.045Z,3.60
2022-10-08T18:38:59.476Z,3.60
2022-10-08T18:41:29.037Z,3.77
2022-10-08T18:43:57.119Z,3.65
2022-10-08T18:46:24.630Z,3.15
2022-10-08T18:48:51.969Z,3.67
2022-10-08T18:51:21.702Z,3.75
2022-10-08T18:53:49.770Z,4.22
2022-10-08T18:56:38.662Z,4.15
2022-10-08T18:59:08.014Z,4.60
2022-10-08T19:01:37.434Z,3.30
2022-10-08T19:04:07.449Z,3.35
2022-10-08T19:06:37.328Z,3.95
2022-10-08T19:09:06.252Z,3.92
2022-10-08T19:11:44.337Z,4.13
2022-10-08T19:14:14.873Z,3.65
2022-10-08T19:16:42.796Z,4.65
2022-10-08T19:19:24.293Z,4.97
2022-10-08T19:21:52.260Z,4.95
2022-10-08T19:24:21.406Z,4.82
2022-10-08T19:26:48.724Z,5.00
2022-10-08T19:29:24.340Z,4.88
2022-10-08T19:31:52.092Z,4.50
2022-10-08T19:34:21.789Z,3.83
2022-10-08T19:36:49.632Z,3.72
2022-10-08T19:39:19.527Z,3.83
2022-10-08T19:41:47.161Z,3.80
2022-10-08T19:44:15.881Z,3.35
2022-10-08T19:46:43.366Z,3.35
2022-10-08T19:49:11.393Z,3.95
2022-10-08T19:51:39.096Z,4.03
2022-10-08T19:54:06.797Z,4.55
2022-10-08T19:56:35.821Z,3.97
2022-10-08T19:59:03.340Z,4.10
2022-10-08T20:01:33.507Z,5.30
2022-10-08T20:06:31.133Z,5.47
2022-10-08T20:09:01.122Z,3.95
2022-10-08T20:11:30.324Z,4.35
2022-10-08T20:13:58.617Z,4.40
2022-10-08T20:16:31.668Z,5.00
2022-10-08T20:19:01.222Z,6.25
2022-10-08T20:21:30.060Z,6.55
2022-10-08T20:23:57.517Z,6.35
2022-10-08T20:26:37.079Z,6.65
2022-10-08T20:29:05.498Z,8.48
2022-10-08T20:31:39.183Z,7.35
2022-10-08T20:34:13.388Z,7.97
2022-10-08T20:36:40.813Z,7.88
2022-10-08T20:39:08.200Z,8.13
2022-10-08T20:41:35.509Z,9.05
2022-10-08T20:44:04.057Z,8.90
2022-10-08T20:46:33.119Z,8.98
2022-10-08T20:49:00.632Z,8.77
2022-10-08T20:51:29.355Z,8.30
2022-10-08T20:54:01.891Z,7.25
2022-10-08T20:56:30.396Z,7.00
2022-10-08T20:58:57.773Z,5.65
2022-10-08T21:01:37.539Z,5.30
2022-10-08T21:04:06.259Z,4.47
2022-10-08T21:06:39.971Z,3.95
2022-10-08T21:09:08.029Z,4.00
2022-10-08T21:11:36.213Z,3.63
2022-10-08T21:14:04.495Z,3.80
2022-10-08T21:16:34.559Z,3.67
2022-10-08T21:21:32.951Z,3.40
2022-10-08T21:24:00.645Z,3.50
2022-10-08T21:26:29.425Z,3.33
2022-10-08T21:28:58.812Z,2.63
2022-10-08T21:31:27.075Z,2.60
2022-10-08T21:33:54.849Z,3.03
2022-10-08T21:36:24.816Z,2.88
2022-10-08T21:38:52.157Z,2.92
2022-10-08T21:41:22.046Z,3.15
2022-10-08T21:43:51.784Z,3.08
2022-10-08T21:46:24.911Z,2.97
2022-10-08T21:49:00.523Z,3.42
2022-10-08T21:51:29.352Z,2.40
2022-10-08T21:53:58.209Z,3.08
2022-10-08T21:56:27.463Z,3.15
2022-10-08T21:58:58.101Z,3.53
2022-10-08T22:01:28.426Z,3.75
2022-10-08T22:06:32.729Z,3.28
2022-10-08T22:09:00.260Z,2.45
2022-10-08T22:11:27.679Z,2.92
2022-10-08T22:13:54.893Z,2.63
2022-10-08T22:16:23.019Z,2.83
2022-10-08T22:18:50.487Z,2.75
2022-10-08T22:21:19.801Z,2.42
2022-10-08T22:23:47.480Z,3.23
2022-10-08T22:26:20.218Z,2.20
2022-10-08T22:28:48.102Z,2.17
2022-10-08T22:31:16.776Z,1.88
2022-10-08T22:33:44.394Z,2.08
2022-10-08T22:36:18.215Z,2.20
2022-10-08T22:38:46.220Z,2.40
2022-10-08T22:41:19.431Z,2.20
2022-10-08T22:43:46.761Z,2.60
2022-10-08T22:46:18.353Z,2.33
2022-10-08T22:48:46.445Z,2.33
2022-10-08T22:51:16.597Z,2.67
2022-10-08T22:56:14.350Z,2.90
2022-10-08T22:58:41.791Z,3.17
2022-10-08T23:01:11.091Z,2.58
2022-10-08T23:03:38.745Z,2.85
2022-10-08T23:06:22.167Z,3.15
2022-10-08T23:08:53.960Z,3.10
2022-10-08T23:11:21.173Z,3.03
2022-10-08T23:13:55.625Z,3.17
2022-10-08T23:16:24.645Z,2.97
2022-10-08T23:18:54.274Z,3.03
2022-10-08T23:21:21.964Z,2.75
2022-10-08T23:23:49.961Z,2.92
2022-10-08T23:26:18.134Z,3.35
2022-10-08T23:28:50.163Z,3.58
2022-10-08T23:31:22.519Z,3.30
2022-10-08T23:33:51.520Z,3.35
2022-10-08T23:36:23.891Z,2.90
2022-10-08T23:38:51.546Z,3.88
2022-10-08T23:41:19.314Z,3.25
2022-10-08T23:43:47.982Z,4.38
2022-10-08T23:46:16.899Z,4.65
2022-10-08T23:48:44.312Z,6.30
2022-10-08T23:51:13.067Z,6.28
2022-10-08T23:53:42.638Z,6.78
2022-10-08T23:56:10.571Z,7.25
2022-10-08T23:58:38.218Z,6.93
